Time;durP1;ratioP1;P1;durP2;ratioP2;P2;SDS_P1;SDS_P2;PMS_P1;PMS_P2;Temp;Humidity;BMP_temperature;BMP_pressure;BME280_temperature;BME280_humidity;BME280_pressure;Samples;Min_cycle;Max_cycle;Signal;HPM_P1;HPM_P2
2020/12/26 00:02:43;;;;;;;1999.90;999.90;;;;;;;3.79;68.17;101657.66;15745351;28;20448;-57
2020/12/26 00:10:16;;;;;;;1999.90;999.90;;;;;;;3.92;68.22;101662.72;15727373;28;20047;-60
2020/12/26 00:17:50;;;;;;;1999.90;999.90;;;;;;;3.87;67.43;101648.91;15743454;28;20049;-56
2020/12/26 00:25:24;;;;;;;1999.90;999.90;;;;;;;3.54;68.78;101658.28;15743725;28;20052;-54
2020/12/26 00:32:59;;;;;;;1999.90;999.90;;;;;;;3.54;68.71;101638.97;15725548;28;20500;-52
2020/12/26 00:40:33;;;;;;;1999.90;999.90;;;;;;;3.57;68.79;101649.50;15725685;28;20039;-55
2020/12/26 00:48:07;;;;;;;1999.90;999.90;;;;;;;3.81;68.22;101652.72;15742777;28;20524;-55
2020/12/26 00:55:40;;;;;;;1999.90;999.90;;;;;;;3.56;68.30;101656.94;15722462;28;20033;-57
2020/12/26 01:03:17;;;;;;;1999.90;999.90;;;;;;;3.19;69.20;101657.69;15707708;28;20117;-54
2020/12/26 01:10:51;;;;;;;1999.90;999.90;;;;;;;3.30;68.88;101660.56;15707341;28;20041;-56
2020/12/26 01:18:28;;;;;;;1999.90;999.90;;;;;;;3.23;68.72;101659.94;15740589;28;20048;-52
2020/12/26 01:26:02;;;;;;;1999.90;999.90;;;;;;;3.11;68.87;101673.88;15722041;28;20074;-57
2020/12/26 01:33:37;;;;;;;1999.90;999.90;;;;;;;3.51;68.06;101678.97;15740194;28;20067;-54
2020/12/26 01:41:14;;;;;;;1999.90;999.90;;;;;;;3.23;68.15;101682.88;15740136;28;20051;-56
2020/12/26 01:48:48;;;;;;;1999.90;999.90;;;;;;;2.81;69.25;101691.78;15739053;28;20113;-55
2020/12/26 01:56:26;;;;;;;1999.90;999.90;;;;;;;3.24;67.96;101670.72;15738187;28;20052;-53
2020/12/26 02:04:09;;;;;;;1999.90;999.90;;;;;;;3.20;67.76;101677.84;15719829;28;20059;-57
2020/12/26 02:11:49;;;;;;;;;;;;;;;3.39;67.09;101684.66;15720695;28;20472;-57
2020/12/26 02:19:26;;;;;;;1999.90;999.90;;;;;;;3.18;67.52;101680.03;15737168;28;19927;-57
2020/12/26 02:27:03;;;;;;;1999.90;999.90;;;;;;;2.89;68.51;101665.66;15720294;28;20105;-57
2020/12/26 02:34:38;;;;;;;1999.90;999.90;;;;;;;3.13;67.21;101672.56;15736993;28;20048;-56
2020/12/26 02:42:14;;;;;;;1999.90;999.90;;;;;;;2.96;67.91;101665.47;15718573;28;20507;-57
2020/12/26 02:49:50;;;;;;;1999.90;999.90;;;;;;;2.97;67.58;101662.44;15735251;28;20454;-54
2020/12/26 02:57:25;;;;;;;1999.90;999.90;;;;;;;2.93;68.01;101663.22;15735420;28;20067;-57
2020/12/26 03:04:58;;;;;;;1999.90;999.90;;;;;;;3.13;66.96;101649.66;15716959;28;20668;-58
2020/12/26 03:12:32;;;;;;;1999.90;999.90;;;;;;;2.95;67.83;101661.03;15735200;28;20063;-58
2020/12/26 03:20:05;;;;;;;;;;;;;;;3.06;67.57;101665.56;15747651;28;20120;-54
2020/12/26 03:27:39;;;;;;;1999.90;999.90;;;;;;;3.29;66.95;101673.53;15746824;28;20225;-54
2020/12/26 03:35:12;;;;;;;1999.90;999.90;;;;;;;3.06;67.00;101682.94;15745152;28;20045;-57
2020/12/26 03:42:45;;;;;;;1999.90;999.90;;;;;;;3.15;66.34;101689.66;15728786;28;20120;-58
2020/12/26 03:50:19;;;;;;;1999.90;999.90;;;;;;;2.92;67.43;101698.25;15746111;28;20040;-58
2020/12/26 03:57:53;;;;;;;1999.90;999.90;;;;;;;3.11;66.78;101707.81;15746079;28;20070;-57
2020/12/26 04:05:25;;;;;;;1999.90;999.90;;;;;;;3.03;66.76;101724.00;15727335;28;20067;-55
2020/12/26 04:12:59;;;;;;;1999.90;999.90;;;;;;;3.14;66.22;101723.84;15745189;28;20102;-59
2020/12/26 04:20:31;;;;;;;1999.90;999.90;;;;;;;3.28;66.19;101720.69;15727336;28;20131;-54
2020/12/26 04:28:06;;;;;;;1999.90;999.90;;;;;;;3.29;66.19;101711.31;15743771;28;20044;-57
2020/12/26 04:35:39;;;;;;;1999.90;999.90;;;;;;;3.30;65.98;101701.94;15743676;28;20068;-57
2020/12/26 04:43:13;;;;;;;1999.90;999.90;;;;;;;3.31;65.38;101698.09;15725080;28;20060;-57
2020/12/26 04:50:47;;;;;;;;;;;;;;;3.16;66.39;101715.31;15725046;28;20044;-57
2020/12/26 04:58:24;;;;;;;1999.90;999.90;;;;;;;3.15;66.36;101702.63;15742468;28;19924;-58
2020/12/26 05:06:04;;;;;;;1999.90;999.90;;;;;;;3.07;65.99;101686.53;15741589;28;20493;-57
2020/12/26 05:13:43;;;;;;;1999.90;999.90;;;;;;;2.86;66.59;101686.31;15707550;28;20053;-54
2020/12/26 05:21:24;;;;;;;1999.90;999.90;;;;;;;2.71;67.22;101688.91;15740905;28;20063;-57
2020/12/26 05:29:00;;;;;;;1999.90;999.90;;;;;;;2.94;66.63;101686.94;15740580;28;20048;-59
2020/12/26 05:36:33;;;;;;;1999.90;999.90;;;;;;;2.78;66.25;101683.16;15739446;28;20471;-55
2020/12/26 05:44:07;;;;;;;1999.90;999.90;;;;;;;2.60;67.22;101687.06;15739610;28;20075;-57
2020/12/26 05:51:40;;;;;;;1999.90;999.90;;;;;;;2.50;67.73;101692.47;15720692;28;20040;-59
2020/12/26 05:59:26;;;;;;;1999.90;999.90;;;;;;;2.48;67.95;101691.88;15720951;28;20052;-58
2020/12/26 06:07:02;;;;;;;1999.90;999.90;;;;;;;2.22;68.91;101677.78;15719882;28;20106;-56
2020/12/26 06:14:35;;;;;;;1999.90;999.90;;;;;;;2.13;69.24;101684.81;15738553;28;20049;-59
2020/12/26 06:22:14;;;;;;;1999.90;999.90;;;;;;;2.07;69.63;101693.22;15738394;28;20139;-56
2020/12/26 06:29:56;;;;;;;1999.90;999.90;;;;;;;1.91;70.42;101701.28;15736946;28;20036;-54
2020/12/26 06:37:29;;;;;;;;;;;;;;;1.79;71.38;101705.19;15736947;28;20040;-53
2020/12/26 06:45:03;;;;;;;1999.90;999.90;;;;;;;1.79;72.77;101718.97;15718767;28;20000;-59
2020/12/26 06:52:39;;;;;;;1999.90;999.90;;;;;;;1.89;73.53;101700.69;15717817;28;20127;-54
2020/12/26 07:00:29;;;;;;;1999.90;999.90;;;;;;;2.16;72.75;101708.25;15717442;28;20075;-59
2020/12/26 07:08:02;;;;;;;1999.90;999.90;;;;;;;2.24;72.42;101708.66;15735701;28;20163;-59
2020/12/26 07:15:35;;;;;;;1999.90;999.90;;;;;;;2.30;72.29;101726.09;15717846;28;20036;-57
2020/12/26 07:23:12;;;;;;;1999.90;999.90;;;;;;;2.03;73.22;101714.94;15700536;28;20084;-57
2020/12/26 07:30:45;;;;;;;1999.90;999.90;;;;;;;2.20;72.98;101724.03;15715513;28;20044;-57
2020/12/26 07:38:18;;;;;;;;;;;;;;;2.65;71.92;101720.22;15705787;28;20129;-59
2020/12/26 07:45:55;;;;;;;1999.90;999.90;;;;;;;2.69;71.64;101718.63;15734364;28;19927;-56
2020/12/26 07:53:28;;;;;;;1999.90;999.90;;;;;;;2.58;71.49;101733.34;15734962;28;20080;-59
2020/12/26 08:01:02;;;;;;;1999.90;999.90;;;;;;;2.62;72.15;101741.97;15718515;28;20456;-58
2020/12/26 08:08:37;;;;;;;1999.90;999.90;;;;;;;2.69;71.97;101737.06;15745485;28;20083;-57
2020/12/26 08:16:11;;;;;;;1999.90;999.90;;;;;;;2.67;71.79;101731.00;15744036;28;20516;-56
2020/12/26 08:23:43;;;;;;;;;;;;;;;2.97;71.13;101730.53;15745702;28;20121;-56
2020/12/26 08:31:21;;;;;;;1999.90;999.90;;;;;;;2.97;70.80;101717.59;15726719;28;19927;-58
2020/12/26 08:38:57;;;;;;;1999.90;999.90;;;;;;;2.94;70.97;101718.13;15709533;28;20044;-54
2020/12/26 08:46:31;;;;;;;1999.90;999.90;;;;;;;3.10;70.39;101724.63;15744164;28;20041;-57
2020/12/26 08:54:04;;;;;;;1999.90;999.90;;;;;;;3.24;69.34;101731.41;15743192;28;20486;-57
2020/12/26 09:01:37;;;;;;;1999.90;999.90;;;;;;;3.45;69.11;101738.81;15725199;28;20037;-59
2020/12/26 09:09:13;;;;;;;;;;;;;;;3.75;67.13;101745.69;15725329;28;20049;-57
2020/12/26 09:16:47;;;;;;;1999.90;999.90;;;;;;;3.89;67.28;101741.41;15740641;28;19930;-57
2020/12/26 09:24:21;;;;;;;1999.90;999.90;;;;;;;3.67;67.61;101732.38;15723850;28;20036;-56
2020/12/26 09:31:54;;;;;;;;;;;;;;;3.96;66.60;101739.28;15741609;28;20136;-54
2020/12/26 09:39:27;;;;;;;1999.90;999.90;;;;;;;4.07;65.67;101728.31;15739733;28;19927;-55
2020/12/26 09:47:02;;;;;;;1999.90;999.90;;;;;;;4.23;65.43;101741.94;15725113;28;20040;-54
2020/12/26 09:54:35;;;;;;;1999.90;999.90;;;;;;;4.48;64.85;101734.91;15722656;28;20454;-58
2020/12/26 10:02:08;;;;;;;1999.90;999.90;;;;;;;4.45;64.68;101724.38;15736893;28;20048;-60
2020/12/26 10:09:41;;;;;;;1999.90;999.90;;;;;;;4.41;65.05;101715.81;15700853;28;20045;-54
2020/12/26 10:17:14;;;;;;;1999.90;999.90;;;;;;;4.35;64.78;101714.94;15774941;28;20050;-56
2020/12/26 10:24:47;;;;;;;1999.90;999.90;;;;;;;4.39;64.99;101717.19;15743371;28;20055;-58
2020/12/26 10:32:20;;;;;;;1999.90;999.90;;;;;;;4.00;65.88;101714.72;15736421;28;20567;-58
2020/12/26 10:39:53;;;;;;;1999.90;999.90;;;;;;;3.96;65.39;101706.13;15716038;28;20127;-60
2020/12/26 10:47:27;;;;;;;1999.90;999.90;;;;;;;3.80;66.40;101698.81;15716422;28;20517;-56
2020/12/26 10:54:59;;;;;;;1999.90;999.90;;;;;;;4.04;65.63;101680.75;15735101;28;20049;-57
2020/12/26 11:02:33;;;;;;;1999.90;999.90;;;;;;;4.03;66.63;101683.78;15734418;28;20068;-58
2020/12/26 11:10:05;;;;;;;1999.90;999.90;;;;;;;4.25;66.44;101686.41;15714884;28;20047;-58
2020/12/26 11:17:39;;;;;;;1999.90;999.90;;;;;;;4.46;65.75;101682.66;15717965;28;20040;-58
2020/12/26 11:25:11;;;;;;;1999.90;999.90;;;;;;;3.75;70.29;101674.78;15717845;28;20112;-55
2020/12/26 11:32:45;;;;;;;1999.90;999.90;;;;;;;3.99;70.45;101658.63;15736147;28;20051;-57
2020/12/26 11:40:18;;;;;;;1999.90;999.90;;;;;;;3.70;71.82;101658.16;15745219;28;20091;-57
2020/12/26 11:47:51;;;;;;;1999.90;999.90;;;;;;;3.93;71.93;101648.66;15728972;28;20131;-54
2020/12/26 11:55:24;;;;;;;1999.90;999.90;;;;;;;4.05;71.34;101652.03;15746988;28;20136;-58
2020/12/26 12:02:57;;;;;;;1999.90;999.90;;;;;;;3.94;72.16;101635.66;15727831;28;20377;-55
2020/12/26 12:10:33;;;;;;;1999.90;999.90;;;;;;;4.38;70.88;101614.09;15740939;28;20510;-56
2020/12/26 12:18:07;;;;;;;1999.90;999.90;;;;;;;4.91;69.85;101610.13;15748187;28;20477;-57
2020/12/26 12:25:39;;;;;;;;;;;;;;;4.61;70.13;101597.03;15790058;28;20040;-57
2020/12/26 12:33:13;;;;;;;1999.90;999.90;;;;;;;4.82;70.50;101589.63;15745039;28;19920;-57
2020/12/26 12:40:45;;;;;;;1999.90;999.90;;;;;;;4.78;70.49;101593.19;15742340;28;20166;-58
2020/12/26 12:48:19;;;;;;;1999.90;999.90;;;;;;;4.99;69.76;101569.19;15757539;28;20047;-58
2020/12/26 12:55:52;;;;;;;1999.90;999.90;;;;;;;4.91;70.42;101551.22;15804335;28;20535;-57
2020/12/26 13:03:25;;;;;;;1999.90;999.90;;;;;;;4.82;70.66;101541.78;15784649;28;20450;-58
2020/12/26 13:10:58;;;;;;;1999.90;999.90;;;;;;;5.21;69.10;101544.88;15664699;28;20037;-57
2020/12/26 13:18:32;;;;;;;1999.90;999.90;;;;;;;5.34;68.63;101526.88;15712638;28;20075;-58
2020/12/26 13:26:04;;;;;;;;;;;;;;;5.79;66.96;101535.06;15735721;28;20056;-59
2020/12/26 13:33:38;;;;;;;1999.90;999.90;;;;;;;5.24;68.89;101522.16;15694410;28;19920;-59
2020/12/26 13:41:13;;;;;;;1999.90;999.90;;;;;;;5.26;68.56;101513.56;15719917;28;20135;-58
2020/12/26 13:48:47;;;;;;;1999.90;999.90;;;;;;;5.16;68.71;101504.19;15720810;28;20055;-56
2020/12/26 13:56:24;;;;;;;1999.90;999.90;;;;;;;5.36;68.22;101496.97;15719844;28;20045;-55
2020/12/26 14:03:57;;;;;;;1999.90;999.90;;;;;;;5.21;69.13;101492.28;15737526;28;20127;-55
2020/12/26 14:11:30;;;;;;;;;;;;;;;5.46;68.09;101480.34;15739711;28;20128;-57
2020/12/26 14:19:04;;;;;;;1999.90;999.90;;;;;;;5.39;68.86;101485.31;15720223;28;19969;-57
2020/12/26 14:26:37;;;;;;;1999.90;999.90;;;;;;;5.20;69.34;101462.94;15739131;28;20071;-57
2020/12/26 14:34:10;;;;;;;1999.90;999.90;;;;;;;5.10;69.60;101462.94;15719465;28;20046;-57
2020/12/26 14:41:47;;;;;;;1999.90;999.90;;;;;;;5.15;69.34;101462.94;15734063;28;20044;-58
2020/12/26 14:49:21;;;;;;;1999.90;999.90;;;;;;;4.81;69.55;101463.53;15718215;28;20045;-56
2020/12/26 14:56:54;;;;;;;1999.90;999.90;;;;;;;5.13;69.43;101456.88;15719194;28;20056;-57
2020/12/26 15:04:28;;;;;;;1999.90;999.90;;;;;;;4.85;70.11;101449.97;15736601;28;20120;-56
2020/12/26 15:12:01;;;;;;;1999.90;999.90;;;;;;;4.79;69.82;101446.38;15736964;28;20079;-57
2020/12/26 15:19:34;;;;;;;1999.90;999.90;;;;;;;4.59;70.15;101430.63;15736400;28;20106;-59
2020/12/26 15:27:07;;;;;;;1999.90;999.90;;;;;;;4.50;70.83;101442.50;15735787;28;20047;-55
2020/12/26 15:34:41;;;;;;;1999.90;999.90;;;;;;;4.39;71.43;101438.91;15735682;28;20044;-58
2020/12/26 15:42:14;;;;;;;1999.90;999.90;;;;;;;4.29;70.76;101430.59;15735640;28;20048;-58
2020/12/26 15:49:47;;;;;;;1999.90;999.90;;;;;;;4.21;71.44;101426.44;15717096;28;20128;-56
2020/12/26 15:57:21;;;;;;;1999.90;999.90;;;;;;;4.42;70.48;101418.16;15734668;28;20076;-59
2020/12/26 16:04:54;;;;;;;1999.90;999.90;;;;;;;4.14;71.20;101414.81;15735726;28;20512;-59
2020/12/26 16:12:28;;;;;;;1999.90;999.90;;;;;;;4.03;71.53;101396.53;15735792;28;20346;-60
2020/12/26 16:20:03;;;;;;;1999.90;999.90;;;;;;;3.93;71.83;101400.13;15734686;28;20139;-56
2020/12/26 16:27:36;;;;;;;1999.90;999.90;;;;;;;3.98;71.28;101394.63;15728214;28;20078;-57
2020/12/26 16:35:09;;;;;;;1999.90;999.90;;;;;;;4.01;71.51;101385.78;15745065;28;20071;-56
2020/12/26 16:42:42;;;;;;;;;;;;;;;3.98;71.36;101368.94;15709820;28;20060;-55
2020/12/26 16:50:15;;;;;;;1999.90;999.90;;;;;;;4.11;70.65;101357.34;15756288;28;19931;-58
2020/12/26 16:57:48;;;;;;;1999.90;999.90;;;;;;;3.98;70.91;101355.13;15741841;28;20052;-55
2020/12/26 17:05:21;;;;;;;1999.90;999.90;;;;;;;3.75;71.59;101354.53;15741742;28;20106;-53
2020/12/26 17:12:54;;;;;;;1999.90;999.90;;;;;;;3.75;71.50;101348.16;15724355;28;20146;-55
2020/12/26 17:20:27;;;;;;;1999.90;999.90;;;;;;;3.74;71.46;101333.53;15740929;28;20477;-57
2020/12/26 17:28:00;;;;;;;1999.90;999.90;;;;;;;3.44;71.89;101330.69;15740398;28;20059;-53
2020/12/26 17:35:33;;;;;;;1999.90;999.90;;;;;;;3.70;71.47;101326.91;15739311;28;20051;-54
2020/12/26 17:43:07;;;;;;;1999.90;999.90;;;;;;;3.61;71.49;101342.31;15737012;28;20461;-56
2020/12/26 17:50:40;;;;;;;1999.90;999.90;;;;;;;3.72;71.17;101329.38;15738393;28;20245;-58
2020/12/26 17:58:13;;;;;;;1999.90;999.90;;;;;;;3.66;71.81;101309.22;15738387;28;20140;-53
2020/12/26 18:05:46;;;;;;;1999.90;999.90;;;;;;;3.46;72.12;101301.72;15738343;28;20044;-56
2020/12/26 18:13:19;;;;;;;1999.90;999.90;;;;;;;3.56;71.47;101284.38;15737856;28;20090;-57
2020/12/26 18:20:53;;;;;;;1999.90;999.90;;;;;;;3.52;71.99;101257.56;15719184;28;20064;-56
2020/12/26 18:28:25;;;;;;;;;;;;;;;3.72;70.85;101247.41;15737259;28;20079;-54
2020/12/26 18:35:59;;;;;;;1999.90;999.90;;;;;;;3.60;71.15;101240.50;15736201;28;19935;-57
2020/12/26 18:43:35;;;;;;;1999.90;999.90;;;;;;;3.71;70.96;101231.94;15718853;28;20089;-56
2020/12/26 18:51:11;;;;;;;1999.90;999.90;;;;;;;3.87;70.92;101229.22;15701657;28;20346;-57
2020/12/26 18:58:44;;;;;;;1999.90;999.90;;;;;;;4.13;70.22;101225.31;15735903;28;20413;-60
2020/12/26 19:06:17;;;;;;;1999.90;999.90;;;;;;;4.39;69.73;101208.72;15735143;28;20052;-58
2020/12/26 19:13:55;;;;;;;1999.90;999.90;;;;;;;4.33;69.23;101211.47;15735948;28;20044;-57
2020/12/26 19:21:28;;;;;;;1999.90;999.90;;;;;;;4.28;68.66;101199.63;15735958;28;20036;-54
2020/12/26 19:29:01;;;;;;;1999.90;999.90;;;;;;;4.33;68.82;101188.53;15735321;28;20166;-53
2020/12/26 19:36:35;;;;;;;1999.90;999.90;;;;;;;4.25;70.15;101181.66;15734958;28;20142;-53
2020/12/26 19:44:07;;;;;;;;;;;;;;;4.34;67.93;101168.91;15736561;28;20052;-53
2020/12/26 19:51:41;;;;;;;1999.90;999.90;;;;;;;4.16;69.08;101160.41;15736349;28;19920;-54
2020/12/26 19:59:14;;;;;;;1999.90;999.90;;;;;;;4.02;69.38;101144.41;15718774;28;20048;-54
2020/12/26 20:06:48;;;;;;;1999.90;999.90;;;;;;;3.98;68.57;101134.22;15725357;28;20071;-55
2020/12/26 20:14:20;;;;;;;1999.90;999.90;;;;;;;3.95;68.79;101143.84;15739406;28;20045;-54
2020/12/26 20:21:54;;;;;;;1999.90;999.90;;;;;;;3.92;68.60;101121.50;15746769;28;20050;-54
2020/12/26 20:29:26;;;;;;;1999.90;999.90;;;;;;;3.85;68.49;101120.97;15746554;28;20169;-58
2020/12/26 20:37:00;;;;;;;1999.90;999.90;;;;;;;3.79;68.29;101100.00;15742411;28;20048;-59
2020/12/26 20:44:33;;;;;;;1999.90;999.90;;;;;;;3.90;68.22;101077.63;15733066;28;20478;-55
2020/12/26 20:52:07;;;;;;;1999.90;999.90;;;;;;;3.89;68.42;101069.63;15732562;28;20052;-57
2020/12/26 20:59:40;;;;;;;1999.90;999.90;;;;;;;3.95;67.97;101035.34;15741194;28;20040;-56
2020/12/26 21:07:14;;;;;;;1999.90;999.90;;;;;;;3.81;68.05;101018.56;15757487;28;20035;-56
2020/12/26 21:14:46;;;;;;;1999.90;999.90;;;;;;;3.83;67.82;101001.72;15777848;28;20052;-58
2020/12/26 21:22:20;;;;;;;1999.90;999.90;;;;;;;3.82;67.69;101000.88;15762664;28;20044;-56
2020/12/26 21:29:52;;;;;;;1999.90;999.90;;;;;;;3.66;67.90;100993.78;15740212;28;20068;-56
2020/12/26 21:37:26;;;;;;;1999.90;999.90;;;;;;;3.46;69.06;100976.16;15721566;28;20036;-57
2020/12/26 21:44:59;;;;;;;1999.90;999.90;;;;;;;3.73;67.54;100974.97;15741308;28;20409;-53
2020/12/26 21:52:32;;;;;;;1999.90;999.90;;;;;;;3.75;68.33;100970.84;15741349;28;20408;-54
2020/12/26 22:00:07;;;;;;;1999.90;999.90;;;;;;;3.57;68.16;100943.84;15740760;28;20048;-56
2020/12/26 22:07:41;;;;;;;1999.90;999.90;;;;;;;3.72;67.59;100935.50;15740035;28;20128;-58
2020/12/26 22:15:14;;;;;;;1999.90;999.90;;;;;;;3.63;68.04;100928.06;15739121;28;20056;-57
2020/12/26 22:22:47;;;;;;;1999.90;999.90;;;;;;;3.72;67.63;100913.41;15720874;28;20144;-57
2020/12/26 22:30:20;;;;;;;1999.90;999.90;;;;;;;3.84;67.55;100891.00;15739075;28;20150;-56
2020/12/26 22:37:54;;;;;;;1999.90;999.90;;;;;;;3.93;67.12;100869.97;15737847;28;20058;-56
2020/12/26 22:45:26;;;;;;;1999.90;999.90;;;;;;;3.79;67.66;100846.06;15737114;28;20044;-58
2020/12/26 22:53:00;;;;;;;1999.90;999.90;;;;;;;3.91;67.26;100841.81;15736836;28;20131;-58
2020/12/26 23:00:34;;;;;;;1999.90;999.90;;;;;;;3.72;67.80;100830.63;15719771;28;20040;-57
2020/12/26 23:08:08;;;;;;;1999.90;999.90;;;;;;;3.78;67.57;100817.63;15703000;28;20466;-56
2020/12/26 23:15:41;;;;;;;1999.90;999.90;;;;;;;3.90;66.80;100812.56;15736693;28;20055;-55
2020/12/26 23:23:14;;;;;;;1999.90;999.90;;;;;;;4.16;65.89;100799.38;15736682;28;20044;-55
2020/12/26 23:30:47;;;;;;;1999.90;999.90;;;;;;;4.20;66.14;100780.31;15720735;28;20050;-52
2020/12/26 23:38:21;;;;;;;1999.90;999.90;;;;;;;3.91;66.55;100767.28;15747640;28;20048;-54
2020/12/26 23:45:54;;;;;;;1999.90;999.90;;;;;;;3.97;66.20;100743.25;15747521;28;20050;-58
2020/12/26 23:53:28;;;;;;;1999.90;999.90;;;;;;;4.14;65.37;100724.28;15728819;28;20505;-52
